createdAt,value
2023-02-09T00:00:31.049Z,97266.97
2023-02-09T00:02:34.092Z,97245.31
2023-02-09T00:04:37.508Z,97271.00
2023-02-09T00:06:40.251Z,97186.09
2023-02-09T00:08:43.418Z,97198.91
2023-02-09T00:10:47.981Z,97265.75
2023-02-09T00:13:08.322Z,97261.19
2023-02-09T00:15:11.221Z,97256.19
2023-02-09T00:17:14.077Z,97265.41
2023-02-09T00:19:17.773Z,97257.81
2023-02-09T00:21:20.480Z,97172.31
2023-02-09T00:23:23.227Z,97252.41
2023-02-09T00:25:25.975Z,97239.47
2023-02-09T00:27:32.289Z,97246.00
2023-02-09T00:29:35.210Z,97242.03
2023-02-09T00:31:38.928Z,97134.84
2023-02-09T00:33:42.360Z,97161.78
2023-02-09T00:35:46.024Z,97237.28
2023-02-09T00:37:48.818Z,97248.38
2023-02-09T00:39:51.605Z,97175.66
2023-02-09T00:42:06.316Z,97250.31
2023-02-09T00:44:10.552Z,97174.50
2023-02-09T00:46:13.375Z,97248.91
2023-02-09T00:48:16.153Z,97248.91
2023-02-09T00:50:19.191Z,97254.78
2023-02-09T00:52:21.919Z,97236.66
2023-02-09T00:54:25.115Z,97252.41
2023-02-09T00:56:28.030Z,97112.31
2023-02-09T00:58:30.837Z,97236.59
2023-02-09T01:00:34.928Z,97243.88
2023-02-09T01:02:38.541Z,97185.25
2023-02-09T01:04:41.338Z,97221.53
2023-02-09T01:06:44.483Z,97229.34
2023-02-09T01:08:47.242Z,97234.59
2023-02-09T01:10:50.021Z,97191.00
2023-02-09T01:12:52.816Z,97220.75
2023-02-09T01:14:55.656Z,97226.97
2023-02-09T01:16:59.856Z,97223.63
2023-02-09T01:19:03.876Z,97223.41
2023-02-09T01:21:11.274Z,97218.88
2023-02-09T01:23:14.166Z,97211.34
2023-02-09T01:25:16.984Z,97224.72
2023-02-09T01:27:20.246Z,97235.22
2023-02-09T01:29:23.070Z,97226.16
2023-02-09T01:31:28.097Z,97234.69
2023-02-09T01:33:32.652Z,97234.34
2023-02-09T01:35:35.483Z,97228.50
2023-02-09T01:37:38.333Z,97224.44
2023-02-09T01:39:41.100Z,97239.69
2023-02-09T01:41:46.062Z,97214.03
2023-02-09T01:44:00.867Z,97215.63
2023-02-09T01:46:03.688Z,97183.13
2023-02-09T01:48:09.578Z,97210.72
2023-02-09T01:50:15.392Z,97158.13
2023-02-09T01:52:22.270Z,97201.44
2023-02-09T01:54:28.463Z,97153.28
2023-02-09T01:56:32.380Z,97182.09
2023-02-09T01:58:36.237Z,97179.72
2023-02-09T02:00:39.701Z,97202.06
2023-02-09T02:02:44.024Z,97198.50
2023-02-09T02:04:47.228Z,97143.53
2023-02-09T02:06:55.234Z,97203.97
2023-02-09T02:09:03.196Z,97154.72
2023-02-09T02:11:06.795Z,97194.81
2023-02-09T02:13:09.645Z,97156.13
2023-02-09T02:15:12.737Z,97197.63
2023-02-09T02:17:27.812Z,97199.88
2023-02-09T02:19:48.444Z,97207.56
2023-02-09T02:22:35.010Z,97197.31
2023-02-09T02:25:06.400Z,97191.38
2023-02-09T02:27:16.464Z,97197.31
2023-02-09T02:29:37.945Z,97196.50
2023-02-09T02:32:04.089Z,97185.03
2023-02-09T02:34:13.756Z,97200.88
2023-02-09T02:36:24.065Z,97192.91
2023-02-09T02:38:36.724Z,97191.09
2023-02-09T02:40:50.454Z,97177.28
2023-02-09T02:42:57.614Z,97118.78
2023-02-09T02:45:04.981Z,97078.88
2023-02-09T02:47:13.718Z,97194.94
2023-02-09T02:49:23.871Z,97084.84
2023-02-09T02:51:31.113Z,97103.16
2023-02-09T02:53:36.858Z,97163.78
2023-02-09T02:55:40.891Z,97189.56
2023-02-09T02:57:47.478Z,97179.44
2023-02-09T02:59:55.624Z,97051.56
2023-02-09T03:02:04.616Z,97117.78
2023-02-09T03:04:09.865Z,97201.72
2023-02-09T03:06:14.756Z,97200.53
2023-02-09T03:08:17.635Z,97194.94
2023-02-09T03:10:28.005Z,97193.31
2023-02-09T03:12:42.695Z,97183.75
2023-02-09T03:14:53.564Z,97192.81
2023-02-09T03:17:07.646Z,97172.56
2023-02-09T03:19:20.267Z,97192.28
2023-02-09T03:21:29.637Z,97111.75
2023-02-09T03:23:39.074Z,97150.38
2023-02-09T03:25:46.690Z,97197.97
2023-02-09T03:27:54.818Z,97183.41
2023-02-09T03:30:01.017Z,97164.41
2023-02-09T03:32:03.851Z,97189.31
2023-02-09T03:34:07.640Z,97188.25
2023-02-09T03:36:16.349Z,97193.09
2023-02-09T03:38:19.141Z,97190.22
2023-02-09T03:40:22.186Z,97139.34
2023-02-09T03:42:25.518Z,97192.59
2023-02-09T03:44:27.542Z,97178.66
2023-02-09T03:46:30.300Z,97179.50
2023-02-09T03:48:35.213Z,97168.78
2023-02-09T03:50:38.364Z,97115.88
2023-02-09T03:52:42.518Z,97189.66
2023-02-09T03:54:45.708Z,97072.88
2023-02-09T03:57:24.387Z,97161.09
2023-02-09T03:59:28.501Z,97175.97
2023-02-09T04:01:33.288Z,97182.38
2023-02-09T04:03:36.413Z,97190.75
2023-02-09T04:05:39.274Z,97150.53
2023-02-09T04:07:43.335Z,97187.19
2023-02-09T04:09:46.098Z,97184.00
2023-02-09T04:11:49.422Z,97095.66
2023-02-09T04:13:52.193Z,97191.91
2023-02-09T04:15:55.042Z,97116.13
2023-02-09T04:17:57.776Z,97136.47
2023-02-09T04:20:00.553Z,97196.34
2023-02-09T04:22:03.268Z,97203.25
2023-02-09T04:24:07.974Z,97203.00
2023-02-09T04:26:10.767Z,97194.19
2023-02-09T04:28:13.525Z,97188.00
2023-02-09T04:30:16.860Z,97191.06
2023-02-09T04:32:19.604Z,97198.94
2023-02-09T04:34:24.157Z,97209.19
2023-02-09T04:36:26.901Z,97197.84
2023-02-09T04:38:30.025Z,97141.94
2023-02-09T04:40:34.219Z,97189.75
2023-02-09T04:42:37.094Z,97195.09
2023-02-09T04:44:39.801Z,97211.78
2023-02-09T04:46:44.702Z,97199.19
2023-02-09T04:48:48.312Z,97193.94
2023-02-09T04:50:51.912Z,97188.44
2023-02-09T04:52:54.602Z,97201.56
2023-02-09T04:54:57.318Z,97197.19
2023-02-09T04:57:15.305Z,97096.25
2023-02-09T04:59:36.147Z,97212.56
2023-02-09T05:01:38.906Z,97145.94
2023-02-09T05:03:42.540Z,97166.16
2023-02-09T05:05:45.448Z,97205.66
2023-02-09T05:07:48.221Z,97196.84
2023-02-09T05:09:50.910Z,97192.31
2023-02-09T05:11:53.676Z,97196.47
2023-02-09T05:13:57.955Z,97192.78
2023-02-09T05:16:00.684Z,97129.97
2023-02-09T05:18:03.399Z,97194.44
2023-02-09T05:20:07.472Z,97003.78
2023-02-09T05:22:10.201Z,97167.19
2023-02-09T05:24:12.893Z,97186.94
2023-02-09T05:26:15.598Z,97136.66
2023-02-09T05:28:18.392Z,97157.09
2023-02-09T05:30:23.105Z,97183.59
2023-02-09T05:32:25.927Z,97130.69
2023-02-09T05:34:28.760Z,97184.94
2023-02-09T05:36:31.469Z,97190.88
2023-02-09T05:38:34.209Z,97194.00
2023-02-09T05:40:36.967Z,97189.00
2023-02-09T05:42:40.677Z,97192.13
2023-02-09T05:44:44.226Z,97148.25
2023-02-09T05:46:48.329Z,97198.06
2023-02-09T05:48:51.120Z,97207.47
2023-02-09T05:50:53.963Z,97211.19
2023-02-09T05:52:56.734Z,97213.56
2023-02-09T05:54:59.374Z,97215.47
2023-02-09T05:57:02.327Z,97210.00
2023-02-09T05:59:05.011Z,97191.91
2023-02-09T06:01:07.696Z,97201.41
2023-02-09T06:03:11.748Z,97210.34
2023-02-09T06:05:14.544Z,97203.56
2023-02-09T06:07:17.348Z,97205.22
2023-02-09T06:09:20.103Z,97207.16
2023-02-09T06:11:22.827Z,97122.06
2023-02-09T06:13:25.524Z,97212.41
2023-02-09T06:15:28.277Z,97222.16
2023-02-09T06:17:31.064Z,97193.47
2023-02-09T06:19:35.595Z,97125.88
2023-02-09T06:21:38.814Z,97153.84
2023-02-09T06:23:43.037Z,97124.81
2023-02-09T06:25:46.305Z,97224.38
2023-02-09T06:27:51.349Z,97227.97
2023-02-09T06:29:54.493Z,97229.06
2023-02-09T06:31:57.399Z,97225.50
2023-02-09T06:34:00.570Z,97232.50
2023-02-09T06:36:06.908Z,97240.25
2023-02-09T06:38:09.636Z,97229.88
2023-02-09T06:40:13.230Z,97238.81
2023-02-09T06:42:16.221Z,97187.13
2023-02-09T06:44:19.182Z,97248.09
2023-02-09T06:46:22.126Z,97242.13
2023-02-09T06:48:25.209Z,97252.84
2023-02-09T06:50:28.061Z,97247.47
2023-02-09T06:52:32.453Z,97252.38
2023-02-09T06:54:35.191Z,97241.19
2023-02-09T06:56:38.227Z,97254.63
2023-02-09T06:58:42.307Z,97249.97
2023-02-09T07:00:46.296Z,97252.84
2023-02-09T07:02:49.365Z,97176.75
2023-02-09T07:04:52.062Z,97253.81
2023-02-09T07:06:54.801Z,97204.75
2023-02-09T07:08:58.849Z,97253.56
2023-02-09T07:11:05.582Z,97263.56
2023-02-09T07:13:08.336Z,97263.75
2023-02-09T07:15:12.717Z,97255.44
2023-02-09T07:17:15.411Z,97260.53
2023-02-09T07:19:18.075Z,97265.09
2023-02-09T07:21:21.493Z,97258.81
2023-02-09T07:23:24.642Z,97264.84
2023-02-09T07:25:28.722Z,97267.84
2023-02-09T07:27:31.421Z,97262.72
2023-02-09T07:29:34.573Z,97269.88
2023-02-09T07:31:37.514Z,97268.78
2023-02-09T07:33:40.503Z,97265.91
2023-02-09T07:35:43.169Z,97266.16
2023-02-09T07:37:45.886Z,97262.31
2023-02-09T07:39:48.706Z,97276.59
2023-02-09T07:41:53.018Z,97118.78
2023-02-09T07:43:57.830Z,97276.75
2023-02-09T07:46:01.487Z,97286.34
2023-02-09T07:48:04.187Z,97276.50
2023-02-09T07:50:07.035Z,97273.34
2023-02-09T07:52:09.715Z,97277.44
2023-02-09T07:54:14.124Z,97285.97
2023-02-09T07:56:16.824Z,97251.28
2023-02-09T07:58:21.181Z,97280.84
2023-02-09T08:00:25.456Z,97290.72
2023-02-09T08:02:34.044Z,97280.13
2023-02-09T08:04:36.726Z,97285.41
2023-02-09T08:06:44.980Z,97285.19
2023-02-09T08:08:48.704Z,97267.31
2023-02-09T08:10:51.878Z,97287.16
2023-02-09T08:13:02.615Z,97280.69
2023-02-09T08:15:07.674Z,97285.28
2023-02-09T08:17:24.169Z,97292.63
2023-02-09T08:19:26.986Z,97296.28
2023-02-09T08:21:32.530Z,97264.25
2023-02-09T08:23:39.498Z,97300.88
2023-02-09T08:25:43.448Z,97292.84
2023-02-09T08:27:47.064Z,97294.50
2023-02-09T08:29:49.861Z,97294.81
2023-02-09T08:31:53.891Z,97290.56
2023-02-09T08:33:56.600Z,97290.44
2023-02-09T08:35:59.380Z,97288.09
2023-02-09T08:38:02.412Z,97288.81
2023-02-09T08:40:05.816Z,97293.81
2023-02-09T08:42:08.566Z,97285.94
2023-02-09T08:44:11.884Z,97280.66
2023-02-09T08:46:14.800Z,97277.22
2023-02-09T08:48:18.903Z,97272.94
2023-02-09T08:50:21.692Z,97277.41
2023-02-09T08:52:24.518Z,97281.41
2023-02-09T08:54:27.351Z,97281.97
2023-02-09T08:56:30.043Z,97289.19
2023-02-09T08:58:33.312Z,97288.06
2023-02-09T09:00:36.051Z,97299.00
2023-02-09T09:02:38.753Z,97294.41
2023-02-09T09:04:42.843Z,97294.09
2023-02-09T09:06:46.517Z,97285.50
2023-02-09T09:08:49.363Z,97294.78
2023-02-09T09:10:52.071Z,97294.88
2023-02-09T09:12:54.813Z,97305.28
2023-02-09T09:14:57.594Z,97302.28
2023-02-09T09:17:00.690Z,97298.88
2023-02-09T09:19:05.731Z,97186.31
2023-02-09T09:21:12.113Z,97285.81
2023-02-09T09:23:15.271Z,97299.47
2023-02-09T09:25:18.179Z,97305.38
2023-02-09T09:27:20.863Z,97295.44
2023-02-09T09:29:24.112Z,97302.59
2023-02-09T09:31:26.877Z,97297.69
2023-02-09T09:33:29.694Z,97304.41
2023-02-09T09:35:32.672Z,97307.75
2023-02-09T09:37:36.716Z,97190.00
2023-02-09T09:39:39.635Z,97307.91
2023-02-09T09:41:42.430Z,97282.50
2023-02-09T09:43:45.261Z,97315.59
2023-02-09T09:45:48.791Z,97307.19
2023-02-09T09:47:52.284Z,97315.28
2023-02-09T09:49:55.171Z,97328.25
2023-02-09T09:52:01.366Z,97317.88
2023-02-09T09:54:08.283Z,97330.78
2023-02-09T09:56:14.090Z,97333.00
2023-02-09T09:58:20.558Z,97328.13
2023-02-09T10:00:26.440Z,97328.78
2023-02-09T10:02:31.956Z,97315.91
2023-02-09T10:04:35.138Z,97333.03
2023-02-09T10:06:41.618Z,97337.56
2023-02-09T10:08:50.947Z,97312.56
2023-02-09T10:11:01.214Z,97273.28
2023-02-09T10:13:09.631Z,97329.53
2023-02-09T10:15:26.119Z,97306.16
2023-02-09T10:17:28.830Z,97333.19
2023-02-09T10:19:32.713Z,97336.69
2023-02-09T10:21:37.302Z,97336.53
2023-02-09T10:23:42.207Z,97322.75
2023-02-09T10:25:59.220Z,97344.66
2023-02-09T10:28:06.441Z,97326.72
2023-02-09T10:30:20.539Z,97274.63
2023-02-09T10:32:25.002Z,97326.56
2023-02-09T10:34:33.500Z,97318.84
2023-02-09T10:36:38.741Z,97318.91
2023-02-09T10:38:42.025Z,97314.25
2023-02-09T10:40:47.474Z,97309.00
2023-02-09T10:42:56.997Z,97312.31
2023-02-09T10:45:08.198Z,97304.50
2023-02-09T10:47:23.766Z,97306.47
2023-02-09T10:49:32.027Z,97308.34
2023-02-09T10:51:34.996Z,97301.84
2023-02-09T10:53:39.810Z,97296.19
2023-02-09T10:55:43.360Z,97308.44
2023-02-09T10:57:46.180Z,97303.41
2023-02-09T10:59:54.606Z,97305.72
2023-02-09T11:01:59.439Z,97301.25
2023-02-09T11:04:04.767Z,97309.31
2023-02-09T11:06:16.429Z,97299.84
2023-02-09T11:08:22.803Z,97280.63
2023-02-09T11:10:26.910Z,97297.88
2023-02-09T11:12:30.285Z,97308.53
2023-02-09T11:14:32.957Z,97301.16
2023-02-09T11:16:58.368Z,97286.97
2023-02-09T11:19:08.563Z,97288.41
2023-02-09T11:21:19.798Z,97292.09
2023-02-09T11:23:37.030Z,97278.47
2023-02-09T11:25:46.577Z,97292.09
2023-02-09T11:28:04.476Z,97287.38
2023-02-09T11:30:19.440Z,97277.66
2023-02-09T11:32:34.294Z,97276.94
2023-02-09T11:34:54.806Z,97284.41
2023-02-09T11:37:07.787Z,97272.16
2023-02-09T11:39:20.221Z,97272.41
2023-02-09T11:41:59.097Z,97280.19
2023-02-09T11:44:06.844Z,97254.56
2023-02-09T11:46:15.671Z,97168.91
2023-02-09T11:48:25.896Z,97204.38
2023-02-09T11:50:34.411Z,97157.41
2023-02-09T11:52:40.535Z,97259.00
2023-02-09T11:54:48.495Z,97246.25
2023-02-09T11:56:54.070Z,97247.94
2023-02-09T11:59:02.074Z,97238.56
2023-02-09T12:01:15.880Z,97246.84
2023-02-09T12:03:18.965Z,97241.13
2023-02-09T12:05:24.902Z,97193.50
2023-02-09T12:07:35.373Z,97171.44
2023-02-09T12:09:49.922Z,97239.47
2023-02-09T12:12:04.768Z,97239.25
2023-02-09T12:14:21.168Z,97227.09
2023-02-09T12:16:27.543Z,97224.19
2023-02-09T12:18:34.197Z,97222.75
2023-02-09T12:20:52.373Z,97214.66
2023-02-09T12:23:01.034Z,97223.13
2023-02-09T12:25:19.292Z,97222.91
2023-02-09T12:27:27.263Z,97205.41
2023-02-09T12:29:39.394Z,97189.97
2023-02-09T12:32:15.200Z,97213.44
2023-02-09T12:34:30.303Z,97217.09
2023-02-09T12:36:35.835Z,97195.94
2023-02-09T12:39:07.444Z,97212.41
2023-02-09T12:41:12.893Z,97210.75
2023-02-09T12:43:30.804Z,97207.72
2023-02-09T12:45:36.877Z,97219.59
2023-02-09T12:47:55.596Z,97222.38
2023-02-09T12:50:05.164Z,97200.25
2023-02-09T12:52:17.831Z,97214.25
2023-02-09T12:54:30.208Z,97208.03
2023-02-09T12:56:34.257Z,97160.75
2023-02-09T12:58:40.126Z,97158.28
2023-02-09T13:00:53.781Z,97210.19
2023-02-09T13:02:57.585Z,97203.19
2023-02-09T13:05:05.113Z,97204.34
2023-02-09T13:07:18.587Z,97196.84
2023-02-09T13:09:29.012Z,97190.25
2023-02-09T13:11:41.428Z,97190.16
2023-02-09T13:13:50.557Z,97189.34
2023-02-09T13:16:10.125Z,97189.72
2023-02-09T13:18:21.038Z,97196.91
2023-02-09T13:20:41.008Z,97188.72
2023-02-09T13:22:57.836Z,97192.47
2023-02-09T13:25:11.547Z,97191.59
2023-02-09T13:27:24.494Z,97198.66
2023-02-09T13:29:28.779Z,97179.97
2023-02-09T13:31:36.909Z,97176.47
2023-02-09T13:33:47.463Z,97189.59
2023-02-09T13:36:08.847Z,97189.28
2023-02-09T13:38:17.731Z,97190.72
2023-02-09T13:40:24.786Z,97196.00
2023-02-09T13:42:29.910Z,97201.06
2023-02-09T13:44:35.019Z,97201.00
2023-02-09T13:46:39.270Z,97200.44
2023-02-09T13:48:41.986Z,97200.50
2023-02-09T13:50:48.274Z,97206.94
2023-02-09T13:52:51.813Z,97195.81
2023-02-09T13:54:55.193Z,97206.16
2023-02-09T13:57:01.702Z,97208.53
2023-02-09T13:59:04.955Z,97098.56
2023-02-09T14:01:10.333Z,97216.63
2023-02-09T14:03:18.777Z,97189.66
2023-02-09T14:05:27.407Z,97198.94
2023-02-09T14:07:35.257Z,97207.81
2023-02-09T14:09:45.143Z,97211.59
2023-02-09T14:11:52.942Z,97202.34
2023-02-09T14:14:02.086Z,97211.09
2023-02-09T14:16:06.839Z,97199.19
2023-02-09T14:18:43.108Z,97208.59
2023-02-09T14:20:59.812Z,97203.03
2023-02-09T14:23:02.984Z,97217.97
2023-02-09T14:25:18.058Z,97222.53
2023-02-09T14:27:24.130Z,97193.69
2023-02-09T14:29:30.277Z,97219.53
2023-02-09T14:31:36.373Z,97224.00
2023-02-09T14:33:39.259Z,97227.72
2023-02-09T14:35:42.656Z,97229.03
2023-02-09T14:37:46.457Z,97239.91
2023-02-09T14:39:56.681Z,97238.50
2023-02-09T14:42:17.732Z,97226.69
2023-02-09T14:44:22.225Z,97226.31
2023-02-09T14:46:26.326Z,97228.53
2023-02-09T14:48:31.223Z,97232.56
2023-02-09T14:50:33.952Z,97229.13
2023-02-09T14:52:38.901Z,97231.50
2023-02-09T14:54:48.225Z,97232.13
2023-02-09T14:56:51.420Z,97226.56
2023-02-09T14:58:55.459Z,97186.19
2023-02-09T15:01:01.088Z,97243.31
2023-02-09T15:03:05.271Z,97238.69
2023-02-09T15:05:08.290Z,97241.69
2023-02-09T15:07:13.372Z,97244.19
2023-02-09T15:09:22.412Z,97246.53
2023-02-09T15:11:43.161Z,97252.28
2023-02-09T15:13:45.903Z,97235.69
2023-02-09T15:15:49.171Z,97240.25
2023-02-09T15:17:54.153Z,97239.84
2023-02-09T15:19:59.390Z,97246.94
2023-02-09T15:22:07.896Z,97246.53
2023-02-09T15:24:10.787Z,97250.59
2023-02-09T15:26:16.926Z,97253.44
2023-02-09T15:28:28.138Z,97227.25
2023-02-09T15:30:34.051Z,97248.81
2023-02-09T15:32:36.770Z,97251.69
2023-02-09T15:34:39.472Z,97243.78
2023-02-09T15:36:43.586Z,97255.84
2023-02-09T15:38:46.802Z,97251.59
2023-02-09T15:41:08.692Z,97252.69
2023-02-09T15:43:36.891Z,97263.56
2023-02-09T15:45:57.418Z,97266.19
2023-02-09T15:48:00.685Z,97271.97
2023-02-09T15:50:03.618Z,97267.66
2023-02-09T15:52:08.324Z,97250.56
2023-02-09T15:54:16.518Z,97269.41
2023-02-09T15:56:20.590Z,97269.97
2023-02-09T15:58:35.284Z,97281.50
2023-02-09T16:00:38.274Z,97271.63
2023-02-09T16:02:41.025Z,97278.84
2023-02-09T16:04:44.256Z,97282.88
2023-02-09T16:06:50.515Z,97293.56
2023-02-09T16:08:55.481Z,97299.66
2023-02-09T16:10:58.244Z,97289.38
2023-02-09T16:13:01.120Z,97255.50
2023-02-09T16:15:03.908Z,97276.72
2023-02-09T16:17:07.717Z,97308.97
2023-02-09T16:19:10.521Z,97301.34
2023-02-09T16:21:21.046Z,97304.13
2023-02-09T16:23:25.003Z,97315.81
2023-02-09T16:25:30.938Z,97295.03
2023-02-09T16:27:33.749Z,97315.78
2023-02-09T16:29:36.448Z,97324.69
2023-02-09T16:31:39.280Z,97318.75
2023-02-09T16:33:43.346Z,97302.84
2023-02-09T16:35:54.600Z,97303.84
2023-02-09T16:37:59.200Z,97324.56
2023-02-09T16:40:08.436Z,97327.22
2023-02-09T16:42:15.259Z,97221.63
2023-02-09T16:44:20.843Z,97341.50
2023-02-09T16:46:23.603Z,97340.66
2023-02-09T16:48:29.040Z,97286.09
2023-02-09T16:50:33.874Z,97333.84
2023-02-09T16:52:36.655Z,97336.81
2023-02-09T16:54:43.169Z,97334.16
2023-02-09T16:56:54.023Z,97334.31
2023-02-09T16:58:58.508Z,97341.59
2023-02-09T17:01:01.350Z,97340.75
2023-02-09T17:03:14.024Z,97218.28
2023-02-09T17:05:21.411Z,97350.50
2023-02-09T17:07:30.229Z,97352.28
2023-02-09T17:09:32.925Z,97356.78
2023-02-09T17:11:35.646Z,97350.16
2023-02-09T17:13:38.338Z,97350.97
2023-02-09T17:15:45.050Z,97357.56
2023-02-09T17:17:52.882Z,97358.06
2023-02-09T17:19:56.558Z,97362.56
2023-02-09T17:22:00.344Z,97361.47
2023-02-09T17:24:05.140Z,97355.31
2023-02-09T17:26:07.882Z,97366.56
2023-02-09T17:28:10.905Z,97375.34
2023-02-09T17:30:19.353Z,97376.53
2023-02-09T17:32:23.545Z,97374.19
2023-02-09T17:34:28.362Z,97368.16
2023-02-09T17:36:31.737Z,97346.47
2023-02-09T17:38:40.892Z,97381.06
2023-02-09T17:40:43.878Z,97384.25
2023-02-09T17:42:47.755Z,97335.97
2023-02-09T17:44:51.405Z,97288.16
2023-02-09T17:46:54.752Z,97350.19
2023-02-09T17:48:58.980Z,97390.94
2023-02-09T17:51:02.750Z,97395.97
2023-02-09T17:53:13.322Z,97384.22
2023-02-09T17:55:25.498Z,97383.78
2023-02-09T17:57:28.311Z,97400.56
2023-02-09T17:59:31.372Z,97372.06
2023-02-09T18:01:34.162Z,97386.19
2023-02-09T18:03:36.938Z,97407.50
2023-02-09T18:05:41.424Z,97320.00
2023-02-09T18:07:48.707Z,97403.75
2023-02-09T18:09:51.934Z,97412.75
2023-02-09T18:12:02.018Z,97366.75
2023-02-09T18:14:04.821Z,97339.63
2023-02-09T18:16:08.226Z,97375.06
2023-02-09T18:18:11.318Z,97372.56
2023-02-09T18:20:17.561Z,97413.78
2023-02-09T18:22:21.690Z,97411.84
2023-02-09T18:24:25.665Z,97410.91
2023-02-09T18:26:35.309Z,97422.84
2023-02-09T18:28:38.003Z,97423.84
2023-02-09T18:30:41.809Z,97413.13
2023-02-09T18:32:44.650Z,97419.91
2023-02-09T18:34:47.398Z,97413.41
2023-02-09T18:36:50.203Z,97428.69
2023-02-09T18:38:54.914Z,97412.97
2023-02-09T18:40:58.788Z,97420.53
2023-02-09T18:43:03.335Z,97420.91
2023-02-09T18:45:06.735Z,97430.53
2023-02-09T18:47:10.756Z,97429.38
2023-02-09T18:49:13.556Z,97437.47
2023-02-09T18:51:16.237Z,97440.72
2023-02-09T18:53:22.041Z,97443.50
2023-02-09T18:55:29.291Z,97434.38
2023-02-09T18:57:31.971Z,97450.22
2023-02-09T18:59:35.318Z,97436.34
2023-02-09T19:01:38.507Z,97456.28
2023-02-09T19:03:41.249Z,97446.16
2023-02-09T19:05:44.616Z,97461.19
2023-02-09T19:07:47.859Z,97345.00
2023-02-09T19:09:50.577Z,97454.47
2023-02-09T19:11:54.618Z,97419.13
2023-02-09T19:14:14.883Z,97459.28
2023-02-09T19:16:17.576Z,97476.59
2023-02-09T19:18:24.726Z,97468.38
2023-02-09T19:20:32.349Z,97463.06
2023-02-09T19:22:35.923Z,97479.13
2023-02-09T19:24:38.705Z,97478.88
2023-02-09T19:26:41.453Z,97488.38
2023-02-09T19:28:45.467Z,97487.41
2023-02-09T19:30:48.232Z,97495.88
2023-02-09T19:32:51.269Z,97483.78
2023-02-09T19:34:56.533Z,97496.94
2023-02-09T19:36:59.699Z,97493.41
2023-02-09T19:39:02.601Z,97470.97
2023-02-09T19:41:10.695Z,97503.44
2023-02-09T19:43:13.841Z,97469.72
2023-02-09T19:45:19.326Z,97497.03
2023-02-09T19:47:25.874Z,97497.03
2023-02-09T19:49:29.410Z,97502.31
2023-02-09T19:51:32.516Z,97513.50
2023-02-09T19:53:36.008Z,97513.13
2023-02-09T19:55:40.798Z,97488.44
2023-02-09T19:57:43.517Z,97394.69
2023-02-09T19:59:46.238Z,97502.13
2023-02-09T20:01:50.308Z,97493.59
2023-02-09T20:03:53.190Z,97425.34
2023-02-09T20:05:55.854Z,97447.78
2023-02-09T20:07:58.734Z,97491.22
2023-02-09T20:10:01.418Z,97498.75
2023-02-09T20:12:04.463Z,97509.59
2023-02-09T20:14:07.472Z,97489.31
2023-02-09T20:16:12.527Z,97490.47
2023-02-09T20:18:17.671Z,97493.84
2023-02-09T20:20:23.611Z,97454.03
2023-02-09T20:22:26.516Z,97447.25
2023-02-09T20:24:29.248Z,97476.09
2023-02-09T20:26:33.257Z,97488.84
2023-02-09T20:28:36.127Z,97370.13
2023-02-09T20:30:42.041Z,97503.28
2023-02-09T20:32:44.714Z,97494.41
2023-02-09T20:34:48.749Z,97499.69
2023-02-09T20:36:51.408Z,97505.38
2023-02-09T20:38:54.279Z,97455.00
2023-02-09T20:40:56.958Z,97478.06
2023-02-09T20:43:17.373Z,97444.22
2023-02-09T20:45:37.831Z,97467.53
2023-02-09T20:47:40.661Z,97506.41
2023-02-09T20:49:43.683Z,97494.03
2023-02-09T20:51:48.116Z,97503.06
2023-02-09T20:53:51.245Z,97494.03
2023-02-09T20:55:55.239Z,97487.09
2023-02-09T20:57:59.151Z,97486.97
2023-02-09T21:00:04.624Z,97504.31
2023-02-09T21:02:07.394Z,97498.63
2023-02-09T21:04:10.288Z,97463.66
2023-02-09T21:06:13.581Z,97517.66
2023-02-09T21:08:18.078Z,97516.97
2023-02-09T21:10:20.987Z,97508.63
2023-02-09T21:12:24.536Z,97502.66
2023-02-09T21:14:41.344Z,97518.75
2023-02-09T21:16:45.276Z,97515.28
2023-02-09T21:18:47.993Z,97513.63
2023-02-09T21:20:50.848Z,97493.91
2023-02-09T21:22:53.763Z,97521.97
2023-02-09T21:24:57.781Z,97494.59
2023-02-09T21:27:00.978Z,97500.72
2023-02-09T21:29:03.718Z,97508.63
2023-02-09T21:31:10.539Z,97509.19
2023-02-09T21:33:13.315Z,97521.13
2023-02-09T21:35:16.724Z,97393.16
2023-02-09T21:37:20.407Z,97506.97
2023-02-09T21:39:23.150Z,97508.63
2023-02-09T21:41:45.268Z,97480.88
2023-02-09T21:43:48.514Z,97526.13
2023-02-09T21:45:51.289Z,97522.38
2023-02-09T21:47:54.011Z,97534.84
2023-02-09T21:49:57.298Z,97528.47
2023-02-09T21:52:00.407Z,97528.06
2023-02-09T21:54:03.151Z,97531.38
2023-02-09T21:56:07.149Z,97534.31
2023-02-09T21:58:11.211Z,97540.81
2023-02-09T22:00:15.352Z,97530.84
2023-02-09T22:02:19.503Z,97544.16
2023-02-09T22:04:22.387Z,97529.72
2023-02-09T22:06:26.208Z,97537.91
2023-02-09T22:08:29.850Z,97553.75
2023-02-09T22:10:32.599Z,97549.72
2023-02-09T22:12:36.418Z,97558.88
2023-02-09T22:14:40.577Z,97529.84
2023-02-09T22:16:43.498Z,97562.47
2023-02-09T22:18:46.366Z,97546.94
2023-02-09T22:20:50.773Z,97538.72
2023-02-09T22:22:53.496Z,97568.88
2023-02-09T22:24:57.187Z,97533.88
2023-02-09T22:27:00.021Z,97485.28
2023-02-09T22:29:02.790Z,97543.44
2023-02-09T22:31:08.561Z,97568.72
2023-02-09T22:33:11.331Z,97567.75
2023-02-09T22:35:14.068Z,97567.75
2023-02-09T22:37:16.844Z,97564.53
2023-02-09T22:39:19.853Z,97572.97
2023-02-09T22:41:24.645Z,97547.28
2023-02-09T22:43:27.967Z,97561.59
2023-02-09T22:45:30.772Z,97523.00
2023-02-09T22:47:35.643Z,97562.97
2023-02-09T22:49:38.403Z,97572.38
2023-02-09T22:51:41.114Z,97579.22
2023-02-09T22:53:43.915Z,97579.94
2023-02-09T22:55:48.356Z,97519.06
2023-02-09T22:57:51.258Z,97521.84
2023-02-09T22:59:54.033Z,97591.00
2023-02-09T23:01:56.794Z,97581.81
2023-02-09T23:04:01.212Z,97594.88
2023-02-09T23:06:05.821Z,97540.63
2023-02-09T23:08:08.688Z,97590.72
2023-02-09T23:10:11.459Z,97590.69
2023-02-09T23:12:14.186Z,97594.34
2023-02-09T23:14:18.226Z,97590.13
2023-02-09T23:16:23.497Z,97598.91
2023-02-09T23:18:26.196Z,97547.06
2023-02-09T23:20:30.313Z,97602.34
2023-02-09T23:22:33.022Z,97580.50
2023-02-09T23:24:35.759Z,97574.25
2023-02-09T23:26:38.907Z,97600.94
2023-02-09T23:28:41.613Z,97602.66
2023-02-09T23:30:45.271Z,97606.81
2023-02-09T23:32:49.266Z,97543.94
2023-02-09T23:34:52.002Z,97599.00
2023-02-09T23:36:57.374Z,97607.06
2023-02-09T23:39:04.810Z,97601.63
2023-02-09T23:41:08.630Z,97631.25
2023-02-09T23:43:11.357Z,97614.91
2023-02-09T23:45:14.192Z,97577.38
2023-02-09T23:47:17.075Z,97618.34
2023-02-09T23:49:19.849Z,97615.28
2023-02-09T23:51:26.464Z,97621.16
2023-02-09T23:53:31.447Z,97616.19
2023-02-09T23:55:34.157Z,97602.75
2023-02-09T23:57:36.839Z,97619.19
2023-02-09T23:59:40.285Z,97617.38
